sensor_id;sensor_type;location;lat;lon;timestamp;P1;durP1;ratioP1;P2;durP2;ratioP2
20611;SDS011;10465;42.686;23.364;2023-06-22T00:01:54;12.68;;;10.48;;
20611;SDS011;10465;42.686;23.364;2023-06-22T00:04:20;14.43;;;11.10;;
20611;SDS011;10465;42.686;23.364;2023-06-22T00:06:45;11.13;;;9.85;;
20611;SDS011;10465;42.686;23.364;2023-06-22T00:09:11;12.50;;;10.73;;
20611;SDS011;10465;42.686;23.364;2023-06-22T00:11:37;12.27;;;10.60;;
20611;SDS011;10465;42.686;23.364;2023-06-22T00:14:03;14.40;;;10.60;;
20611;SDS011;10465;42.686;23.364;2023-06-22T00:16:29;12.75;;;9.93;;
20611;SDS011;10465;42.686;23.364;2023-06-22T00:18:56;12.00;;;10.63;;
20611;SDS011;10465;42.686;23.364;2023-06-22T00:21:25;11.05;;;9.95;;
20611;SDS011;10465;42.686;23.364;2023-06-22T00:23:51;11.73;;;10.60;;
20611;SDS011;10465;42.686;23.364;2023-06-22T00:26:18;13.35;;;11.00;;
20611;SDS011;10465;42.686;23.364;2023-06-22T00:28:44;11.20;;;9.85;;
20611;SDS011;10465;42.686;23.364;2023-06-22T00:31:09;12.55;;;10.30;;
20611;SDS011;10465;42.686;23.364;2023-06-22T00:33:35;11.70;;;10.15;;
20611;SDS011;10465;42.686;23.364;2023-06-22T00:36:00;14.48;;;11.00;;
20611;SDS011;10465;42.686;23.364;2023-06-22T00:38:28;11.73;;;9.95;;
20611;SDS011;10465;42.686;23.364;2023-06-22T00:40:53;11.52;;;10.32;;
20611;SDS011;10465;42.686;23.364;2023-06-22T00:43:19;11.48;;;10.27;;
20611;SDS011;10465;42.686;23.364;2023-06-22T00:45:44;11.40;;;10.20;;
20611;SDS011;10465;42.686;23.364;2023-06-22T00:48:10;12.68;;;10.68;;
20611;SDS011;10465;42.686;23.364;2023-06-22T00:50:37;11.90;;;10.73;;
20611;SDS011;10465;42.686;23.364;2023-06-22T00:53:06;11.88;;;10.70;;
20611;SDS011;10465;42.686;23.364;2023-06-22T00:55:34;11.27;;;10.18;;
20611;SDS011;10465;42.686;23.364;2023-06-22T00:58:03;12.00;;;10.80;;
20611;SDS011;10465;42.686;23.364;2023-06-22T01:00:30;13.18;;;10.63;;
20611;SDS011;10465;42.686;23.364;2023-06-22T01:02:57;12.50;;;11.07;;
20611;SDS011;10465;42.686;23.364;2023-06-22T01:05:23;13.13;;;11.80;;
20611;SDS011;10465;42.686;23.364;2023-06-22T01:10:38;14.45;;;11.40;;
20611;SDS011;10465;42.686;23.364;2023-06-22T01:13:11;13.85;;;11.05;;
20611;SDS011;10465;42.686;23.364;2023-06-22T01:16:00;21.67;;;19.02;;
20611;SDS011;10465;42.686;23.364;2023-06-22T01:18:30;18.05;;;15.90;;
20611;SDS011;10465;42.686;23.364;2023-06-22T01:20:58;18.90;;;16.90;;
20611;SDS011;10465;42.686;23.364;2023-06-22T01:23:42;21.77;;;19.42;;
20611;SDS011;10465;42.686;23.364;2023-06-22T01:26:19;28.02;;;25.08;;
20611;SDS011;10465;42.686;23.364;2023-06-22T01:29:01;34.08;;;30.38;;
20611;SDS011;10465;42.686;23.364;2023-06-22T01:31:29;29.67;;;26.48;;
20611;SDS011;10465;42.686;23.364;2023-06-22T01:33:59;30.58;;;27.27;;
20611;SDS011;10465;42.686;23.364;2023-06-22T01:36:27;30.17;;;26.55;;
20611;SDS011;10465;42.686;23.364;2023-06-22T01:38:55;23.55;;;20.27;;
20611;SDS011;10465;42.686;23.364;2023-06-22T01:41:25;22.90;;;19.92;;
20611;SDS011;10465;42.686;23.364;2023-06-22T01:43:52;26.50;;;20.77;;
20611;SDS011;10465;42.686;23.364;2023-06-22T01:46:19;20.92;;;17.90;;
20611;SDS011;10465;42.686;23.364;2023-06-22T01:48:46;19.30;;;17.27;;
20611;SDS011;10465;42.686;23.364;2023-06-22T01:51:12;21.42;;;16.63;;
20611;SDS011;10465;42.686;23.364;2023-06-22T01:53:37;18.55;;;15.85;;
20611;SDS011;10465;42.686;23.364;2023-06-22T01:56:03;17.90;;;15.48;;
20611;SDS011;10465;42.686;23.364;2023-06-22T01:58:29;23.60;;;16.85;;
20611;SDS011;10465;42.686;23.364;2023-06-22T02:00:57;17.63;;;15.40;;
20611;SDS011;10465;42.686;23.364;2023-06-22T02:03:32;17.15;;;15.32;;
20611;SDS011;10465;42.686;23.364;2023-06-22T02:06:05;18.92;;;14.65;;
20611;SDS011;10465;42.686;23.364;2023-06-22T02:08:46;18.50;;;14.90;;
20611;SDS011;10465;42.686;23.364;2023-06-22T02:11:15;19.20;;;15.30;;
20611;SDS011;10465;42.686;23.364;2023-06-22T02:13:44;16.80;;;15.02;;
20611;SDS011;10465;42.686;23.364;2023-06-22T02:16:11;17.40;;;14.38;;
20611;SDS011;10465;42.686;23.364;2023-06-22T02:18:38;16.10;;;14.40;;
20611;SDS011;10465;42.686;23.364;2023-06-22T02:21:05;15.35;;;13.18;;
20611;SDS011;10465;42.686;23.364;2023-06-22T02:23:31;16.45;;;13.23;;
20611;SDS011;10465;42.686;23.364;2023-06-22T02:25:59;15.50;;;13.38;;
20611;SDS011;10465;42.686;23.364;2023-06-22T02:28:25;16.02;;;13.32;;
20611;SDS011;10465;42.686;23.364;2023-06-22T02:30:51;14.10;;;12.52;;
20611;SDS011;10465;42.686;23.364;2023-06-22T02:33:16;16.02;;;13.60;;
20611;SDS011;10465;42.686;23.364;2023-06-22T02:35:42;13.98;;;12.50;;
20611;SDS011;10465;42.686;23.364;2023-06-22T02:38:10;14.93;;;12.60;;
20611;SDS011;10465;42.686;23.364;2023-06-22T02:40:36;13.75;;;12.35;;
20611;SDS011;10465;42.686;23.364;2023-06-22T02:43:02;13.90;;;11.25;;
20611;SDS011;10465;42.686;23.364;2023-06-22T02:45:28;15.13;;;12.52;;
20611;SDS011;10465;42.686;23.364;2023-06-22T02:47:53;13.65;;;11.27;;
20611;SDS011;10465;42.686;23.364;2023-06-22T02:50:20;14.82;;;11.73;;
20611;SDS011;10465;42.686;23.364;2023-06-22T02:52:45;16.00;;;11.63;;
20611;SDS011;10465;42.686;23.364;2023-06-22T02:55:11;12.77;;;11.27;;
20611;SDS011;10465;42.686;23.364;2023-06-22T02:57:37;14.68;;;12.30;;
20611;SDS011;10465;42.686;23.364;2023-06-22T03:00:03;13.45;;;10.75;;
20611;SDS011;10465;42.686;23.364;2023-06-22T03:02:55;12.77;;;11.32;;
20611;SDS011;10465;42.686;23.364;2023-06-22T03:05:21;12.52;;;11.20;;
20611;SDS011;10465;42.686;23.364;2023-06-22T03:07:47;14.15;;;11.32;;
20611;SDS011;10465;42.686;23.364;2023-06-22T03:10:13;13.25;;;11.55;;
20611;SDS011;10465;42.686;23.364;2023-06-22T03:12:40;13.35;;;11.40;;
20611;SDS011;10465;42.686;23.364;2023-06-22T03:15:07;15.55;;;11.90;;
20611;SDS011;10465;42.686;23.364;2023-06-22T03:17:33;13.90;;;11.85;;
20611;SDS011;10465;42.686;23.364;2023-06-22T03:20:00;12.50;;;11.20;;
20611;SDS011;10465;42.686;23.364;2023-06-22T03:22:25;13.18;;;11.63;;
20611;SDS011;10465;42.686;23.364;2023-06-22T03:24:51;13.07;;;11.48;;
20611;SDS011;10465;42.686;23.364;2023-06-22T03:27:17;15.07;;;12.02;;
20611;SDS011;10465;42.686;23.364;2023-06-22T03:29:43;16.98;;;11.95;;
20611;SDS011;10465;42.686;23.364;2023-06-22T03:32:09;17.67;;;12.07;;
20611;SDS011;10465;42.686;23.364;2023-06-22T03:34:35;17.15;;;11.75;;
20611;SDS011;10465;42.686;23.364;2023-06-22T03:37:01;15.57;;;11.85;;
20611;SDS011;10465;42.686;23.364;2023-06-22T03:39:26;16.55;;;11.98;;
20611;SDS011;10465;42.686;23.364;2023-06-22T03:41:52;13.07;;;11.68;;
20611;SDS011;10465;42.686;23.364;2023-06-22T03:44:17;14.70;;;11.77;;
20611;SDS011;10465;42.686;23.364;2023-06-22T03:46:43;15.15;;;11.70;;
20611;SDS011;10465;42.686;23.364;2023-06-22T03:49:08;14.30;;;11.52;;
20611;SDS011;10465;42.686;23.364;2023-06-22T03:51:34;13.05;;;11.73;;
20611;SDS011;10465;42.686;23.364;2023-06-22T03:53:59;16.63;;;12.07;;
20611;SDS011;10465;42.686;23.364;2023-06-22T03:56:24;13.82;;;11.57;;
20611;SDS011;10465;42.686;23.364;2023-06-22T03:58:50;17.08;;;12.13;;
20611;SDS011;10465;42.686;23.364;2023-06-22T04:01:15;15.48;;;11.75;;
20611;SDS011;10465;42.686;23.364;2023-06-22T04:03:42;16.85;;;12.52;;
20611;SDS011;10465;42.686;23.364;2023-06-22T04:06:07;16.50;;;11.52;;
20611;SDS011;10465;42.686;23.364;2023-06-22T04:08:33;15.32;;;11.38;;
20611;SDS011;10465;42.686;23.364;2023-06-22T04:10:58;16.67;;;12.23;;
20611;SDS011;10465;42.686;23.364;2023-06-22T04:13:24;14.63;;;12.02;;
20611;SDS011;10465;42.686;23.364;2023-06-22T04:15:49;15.73;;;12.02;;
20611;SDS011;10465;42.686;23.364;2023-06-22T04:18:15;17.55;;;12.68;;
20611;SDS011;10465;42.686;23.364;2023-06-22T04:20:40;16.63;;;13.52;;
20611;SDS011;10465;42.686;23.364;2023-06-22T04:23:05;15.30;;;12.85;;
20611;SDS011;10465;42.686;23.364;2023-06-22T04:25:31;16.25;;;13.00;;
20611;SDS011;10465;42.686;23.364;2023-06-22T04:27:56;18.83;;;13.20;;
20611;SDS011;10465;42.686;23.364;2023-06-22T04:30:22;19.50;;;13.73;;
20611;SDS011;10465;42.686;23.364;2023-06-22T04:32:47;17.98;;;13.15;;
20611;SDS011;10465;42.686;23.364;2023-06-22T04:35:23;17.98;;;14.02;;
20611;SDS011;10465;42.686;23.364;2023-06-22T04:37:49;19.77;;;15.10;;
20611;SDS011;10465;42.686;23.364;2023-06-22T04:40:15;18.77;;;14.55;;
20611;SDS011;10465;42.686;23.364;2023-06-22T04:42:40;18.42;;;14.43;;
20611;SDS011;10465;42.686;23.364;2023-06-22T04:45:17;16.45;;;14.70;;
20611;SDS011;10465;42.686;23.364;2023-06-22T04:47:42;19.00;;;15.23;;
20611;SDS011;10465;42.686;23.364;2023-06-22T04:50:13;17.67;;;14.05;;
20611;SDS011;10465;42.686;23.364;2023-06-22T04:52:39;23.42;;;14.52;;
20611;SDS011;10465;42.686;23.364;2023-06-22T04:55:05;20.27;;;15.00;;
20611;SDS011;10465;42.686;23.364;2023-06-22T04:57:31;20.98;;;14.02;;
20611;SDS011;10465;42.686;23.364;2023-06-22T05:00:02;23.75;;;15.10;;
20611;SDS011;10465;42.686;23.364;2023-06-22T05:02:36;18.30;;;15.02;;
20611;SDS011;10465;42.686;23.364;2023-06-22T05:05:02;22.58;;;16.83;;
20611;SDS011;10465;42.686;23.364;2023-06-22T05:07:32;25.67;;;15.45;;
20611;SDS011;10465;42.686;23.364;2023-06-22T05:09:58;17.13;;;14.20;;
20611;SDS011;10465;42.686;23.364;2023-06-22T05:12:24;17.23;;;14.13;;
20611;SDS011;10465;42.686;23.364;2023-06-22T05:14:49;18.40;;;14.30;;
20611;SDS011;10465;42.686;23.364;2023-06-22T05:17:14;15.63;;;13.18;;
20611;SDS011;10465;42.686;23.364;2023-06-22T05:19:44;16.50;;;14.10;;
20611;SDS011;10465;42.686;23.364;2023-06-22T05:22:14;15.15;;;13.55;;
20611;SDS011;10465;42.686;23.364;2023-06-22T05:24:40;15.63;;;13.15;;
20611;SDS011;10465;42.686;23.364;2023-06-22T05:27:06;18.83;;;13.55;;
20611;SDS011;10465;42.686;23.364;2023-06-22T05:29:31;19.20;;;13.70;;
20611;SDS011;10465;42.686;23.364;2023-06-22T05:31:57;15.82;;;13.82;;
20611;SDS011;10465;42.686;23.364;2023-06-22T05:34:22;16.98;;;13.57;;
20611;SDS011;10465;42.686;23.364;2023-06-22T05:36:48;20.30;;;13.88;;
20611;SDS011;10465;42.686;23.364;2023-06-22T05:39:14;20.55;;;15.02;;
20611;SDS011;10465;42.686;23.364;2023-06-22T05:41:40;18.25;;;14.68;;
20611;SDS011;10465;42.686;23.364;2023-06-22T05:44:05;19.50;;;13.90;;
20611;SDS011;10465;42.686;23.364;2023-06-22T05:46:31;19.55;;;14.88;;
20611;SDS011;10465;42.686;23.364;2023-06-22T05:48:57;17.85;;;13.52;;
20611;SDS011;10465;42.686;23.364;2023-06-22T05:51:22;27.98;;;21.77;;
20611;SDS011;10465;42.686;23.364;2023-06-22T05:53:48;17.48;;;13.70;;
20611;SDS011;10465;42.686;23.364;2023-06-22T05:56:17;16.42;;;13.00;;
20611;SDS011;10465;42.686;23.364;2023-06-22T05:58:43;17.10;;;12.98;;
20611;SDS011;10465;42.686;23.364;2023-06-22T06:01:08;15.23;;;12.85;;
20611;SDS011;10465;42.686;23.364;2023-06-22T06:03:33;16.88;;;13.32;;
20611;SDS011;10465;42.686;23.364;2023-06-22T06:06:06;14.02;;;12.52;;
20611;SDS011;10465;42.686;23.364;2023-06-22T06:08:32;17.58;;;13.25;;
20611;SDS011;10465;42.686;23.364;2023-06-22T06:10:57;14.23;;;12.75;;
20611;SDS011;10465;42.686;23.364;2023-06-22T06:13:23;20.67;;;14.60;;
20611;SDS011;10465;42.686;23.364;2023-06-22T06:15:48;16.65;;;13.63;;
20611;SDS011;10465;42.686;23.364;2023-06-22T06:18:16;17.88;;;15.20;;
20611;SDS011;10465;42.686;23.364;2023-06-22T06:20:42;17.55;;;13.80;;
20611;SDS011;10465;42.686;23.364;2023-06-22T06:23:07;17.83;;;14.13;;
20611;SDS011;10465;42.686;23.364;2023-06-22T06:25:33;18.48;;;14.23;;
20611;SDS011;10465;42.686;23.364;2023-06-22T06:27:59;24.17;;;15.80;;
20611;SDS011;10465;42.686;23.364;2023-06-22T06:30:24;19.83;;;16.15;;
20611;SDS011;10465;42.686;23.364;2023-06-22T06:32:50;18.88;;;14.57;;
20611;SDS011;10465;42.686;23.364;2023-06-22T06:35:16;15.07;;;13.45;;
20611;SDS011;10465;42.686;23.364;2023-06-22T06:37:42;15.07;;;13.30;;
20611;SDS011;10465;42.686;23.364;2023-06-22T06:40:09;17.15;;;12.93;;
20611;SDS011;10465;42.686;23.364;2023-06-22T06:42:43;19.75;;;15.23;;
20611;SDS011;10465;42.686;23.364;2023-06-22T06:45:10;20.85;;;15.05;;
20611;SDS011;10465;42.686;23.364;2023-06-22T06:47:38;18.48;;;14.95;;
20611;SDS011;10465;42.686;23.364;2023-06-22T06:50:04;20.65;;;13.35;;
20611;SDS011;10465;42.686;23.364;2023-06-22T06:52:30;21.80;;;14.25;;
20611;SDS011;10465;42.686;23.364;2023-06-22T06:54:56;20.02;;;14.55;;
20611;SDS011;10465;42.686;23.364;2023-06-22T06:57:21;16.15;;;14.27;;
20611;SDS011;10465;42.686;23.364;2023-06-22T06:59:47;18.90;;;14.23;;
20611;SDS011;10465;42.686;23.364;2023-06-22T07:02:14;15.48;;;13.52;;
20611;SDS011;10465;42.686;23.364;2023-06-22T07:04:40;20.27;;;14.73;;
20611;SDS011;10465;42.686;23.364;2023-06-22T07:07:05;17.50;;;15.60;;
20611;SDS011;10465;42.686;23.364;2023-06-22T07:09:31;18.70;;;15.80;;
20611;SDS011;10465;42.686;23.364;2023-06-22T07:11:56;16.75;;;14.95;;
20611;SDS011;10465;42.686;23.364;2023-06-22T07:14:22;16.52;;;14.05;;
20611;SDS011;10465;42.686;23.364;2023-06-22T07:16:47;16.98;;;13.38;;
20611;SDS011;10465;42.686;23.364;2023-06-22T07:19:13;19.40;;;13.95;;
20611;SDS011;10465;42.686;23.364;2023-06-22T07:21:38;18.02;;;12.95;;
20611;SDS011;10465;42.686;23.364;2023-06-22T07:24:07;16.42;;;13.65;;
20611;SDS011;10465;42.686;23.364;2023-06-22T07:26:33;18.70;;;14.07;;
20611;SDS011;10465;42.686;23.364;2023-06-22T07:28:58;15.18;;;13.57;;
20611;SDS011;10465;42.686;23.364;2023-06-22T07:31:24;16.67;;;13.98;;
20611;SDS011;10465;42.686;23.364;2023-06-22T07:33:50;17.13;;;13.98;;
20611;SDS011;10465;42.686;23.364;2023-06-22T07:36:16;15.90;;;13.48;;
20611;SDS011;10465;42.686;23.364;2023-06-22T07:38:42;15.63;;;12.63;;
20611;SDS011;10465;42.686;23.364;2023-06-22T07:41:07;17.65;;;13.60;;
20611;SDS011;10465;42.686;23.364;2023-06-22T07:43:33;16.35;;;12.55;;
20611;SDS011;10465;42.686;23.364;2023-06-22T07:46:01;15.18;;;12.77;;
20611;SDS011;10465;42.686;23.364;2023-06-22T07:48:30;16.83;;;13.05;;
20611;SDS011;10465;42.686;23.364;2023-06-22T07:50:55;15.10;;;13.05;;
20611;SDS011;10465;42.686;23.364;2023-06-22T07:53:21;17.40;;;13.07;;
20611;SDS011;10465;42.686;23.364;2023-06-22T07:55:48;14.57;;;12.25;;
20611;SDS011;10465;42.686;23.364;2023-06-22T07:58:13;16.58;;;12.80;;
20611;SDS011;10465;42.686;23.364;2023-06-22T08:00:39;16.10;;;13.27;;
20611;SDS011;10465;42.686;23.364;2023-06-22T08:03:04;14.75;;;12.50;;
20611;SDS011;10465;42.686;23.364;2023-06-22T08:05:30;17.13;;;12.80;;
20611;SDS011;10465;42.686;23.364;2023-06-22T08:07:56;14.50;;;12.75;;
20611;SDS011;10465;42.686;23.364;2023-06-22T08:10:22;16.77;;;13.13;;
20611;SDS011;10465;42.686;23.364;2023-06-22T08:12:48;16.58;;;13.13;;
20611;SDS011;10465;42.686;23.364;2023-06-22T08:15:13;13.98;;;12.45;;
20611;SDS011;10465;42.686;23.364;2023-06-22T08:17:39;15.07;;;12.95;;
20611;SDS011;10465;42.686;23.364;2023-06-22T08:20:05;16.23;;;14.10;;
20611;SDS011;10465;42.686;23.364;2023-06-22T08:22:36;18.50;;;13.65;;
20611;SDS011;10465;42.686;23.364;2023-06-22T08:25:02;14.93;;;13.20;;
20611;SDS011;10465;42.686;23.364;2023-06-22T08:27:29;16.13;;;13.38;;
20611;SDS011;10465;42.686;23.364;2023-06-22T08:29:56;17.52;;;14.13;;
20611;SDS011;10465;42.686;23.364;2023-06-22T08:32:24;16.30;;;13.48;;
20611;SDS011;10465;42.686;23.364;2023-06-22T08:34:51;20.50;;;14.20;;
20611;SDS011;10465;42.686;23.364;2023-06-22T08:37:17;18.00;;;13.82;;
20611;SDS011;10465;42.686;23.364;2023-06-22T08:39:43;19.27;;;14.27;;
20611;SDS011;10465;42.686;23.364;2023-06-22T08:42:09;20.65;;;14.48;;
20611;SDS011;10465;42.686;23.364;2023-06-22T08:44:34;16.75;;;14.30;;
20611;SDS011;10465;42.686;23.364;2023-06-22T08:46:59;20.90;;;15.38;;
20611;SDS011;10465;42.686;23.364;2023-06-22T08:49:25;15.88;;;13.88;;
20611;SDS011;10465;42.686;23.364;2023-06-22T08:51:50;17.98;;;14.52;;
20611;SDS011;10465;42.686;23.364;2023-06-22T08:54:18;27.45;;;17.73;;
20611;SDS011;10465;42.686;23.364;2023-06-22T08:56:43;20.33;;;15.65;;
20611;SDS011;10465;42.686;23.364;2023-06-22T08:59:09;19.67;;;15.27;;
20611;SDS011;10465;42.686;23.364;2023-06-22T09:01:34;21.70;;;14.63;;
20611;SDS011;10465;42.686;23.364;2023-06-22T09:04:00;20.63;;;13.95;;
20611;SDS011;10465;42.686;23.364;2023-06-22T09:06:25;22.30;;;14.05;;
20611;SDS011;10465;42.686;23.364;2023-06-22T09:08:51;19.55;;;13.82;;
20611;SDS011;10465;42.686;23.364;2023-06-22T09:11:16;19.85;;;14.70;;
20611;SDS011;10465;42.686;23.364;2023-06-22T09:13:42;20.45;;;13.95;;
20611;SDS011;10465;42.686;23.364;2023-06-22T09:16:08;18.63;;;14.43;;
20611;SDS011;10465;42.686;23.364;2023-06-22T09:18:34;16.33;;;13.63;;
20611;SDS011;10465;42.686;23.364;2023-06-22T09:20:59;16.92;;;14.00;;
20611;SDS011;10465;42.686;23.364;2023-06-22T09:23:25;17.00;;;13.52;;
20611;SDS011;10465;42.686;23.364;2023-06-22T09:25:51;19.45;;;12.77;;
20611;SDS011;10465;42.686;23.364;2023-06-22T09:28:16;16.00;;;13.75;;
20611;SDS011;10465;42.686;23.364;2023-06-22T09:30:45;18.23;;;13.20;;
20611;SDS011;10465;42.686;23.364;2023-06-22T09:33:11;16.20;;;13.05;;
20611;SDS011;10465;42.686;23.364;2023-06-22T09:35:36;17.85;;;12.35;;
20611;SDS011;10465;42.686;23.364;2023-06-22T09:38:02;16.65;;;12.63;;
20611;SDS011;10465;42.686;23.364;2023-06-22T09:40:27;14.77;;;11.90;;
20611;SDS011;10465;42.686;23.364;2023-06-22T09:42:52;14.35;;;10.90;;
20611;SDS011;10465;42.686;23.364;2023-06-22T09:45:18;15.32;;;10.80;;
20611;SDS011;10465;42.686;23.364;2023-06-22T09:47:43;12.07;;;10.88;;
20611;SDS011;10465;42.686;23.364;2023-06-22T09:50:09;16.45;;;11.23;;
20611;SDS011;10465;42.686;23.364;2023-06-22T09:52:35;12.38;;;10.32;;
20611;SDS011;10465;42.686;23.364;2023-06-22T09:55:00;11.45;;;10.25;;
20611;SDS011;10465;42.686;23.364;2023-06-22T09:57:26;12.48;;;10.75;;
20611;SDS011;10465;42.686;23.364;2023-06-22T09:59:51;13.98;;;11.30;;
20611;SDS011;10465;42.686;23.364;2023-06-22T10:02:17;13.23;;;11.20;;
20611;SDS011;10465;42.686;23.364;2023-06-22T10:04:42;12.05;;;10.85;;
20611;SDS011;10465;42.686;23.364;2023-06-22T10:07:08;14.50;;;10.73;;
20611;SDS011;10465;42.686;23.364;2023-06-22T10:09:33;14.40;;;10.88;;
20611;SDS011;10465;42.686;23.364;2023-06-22T10:11:58;11.68;;;10.43;;
20611;SDS011;10465;42.686;23.364;2023-06-22T10:14:24;12.68;;;10.00;;
20611;SDS011;10465;42.686;23.364;2023-06-22T10:16:51;13.05;;;9.65;;
20611;SDS011;10465;42.686;23.364;2023-06-22T10:19:17;10.55;;;9.38;;
20611;SDS011;10465;42.686;23.364;2023-06-22T10:21:43;12.05;;;9.30;;
20611;SDS011;10465;42.686;23.364;2023-06-22T10:24:08;11.82;;;9.32;;
20611;SDS011;10465;42.686;23.364;2023-06-22T10:26:34;14.07;;;9.80;;
20611;SDS011;10465;42.686;23.364;2023-06-22T10:29:00;10.40;;;9.43;;
20611;SDS011;10465;42.686;23.364;2023-06-22T10:31:29;9.40;;;8.48;;
20611;SDS011;10465;42.686;23.364;2023-06-22T10:33:55;10.95;;;9.02;;
20611;SDS011;10465;42.686;23.364;2023-06-22T10:36:21;9.63;;;8.63;;
20611;SDS011;10465;42.686;23.364;2023-06-22T10:38:47;10.52;;;9.07;;
20611;SDS011;10465;42.686;23.364;2023-06-22T10:41:13;10.10;;;9.07;;
20611;SDS011;10465;42.686;23.364;2023-06-22T10:43:39;10.90;;;9.73;;
20611;SDS011;10465;42.686;23.364;2023-06-22T10:46:06;11.88;;;10.73;;
20611;SDS011;10465;42.686;23.364;2023-06-22T10:48:31;11.02;;;9.93;;
20611;SDS011;10465;42.686;23.364;2023-06-22T10:50:57;11.48;;;10.00;;
20611;SDS011;10465;42.686;23.364;2023-06-22T10:53:22;12.57;;;9.30;;
20611;SDS011;10465;42.686;23.364;2023-06-22T10:55:48;10.15;;;9.13;;
20611;SDS011;10465;42.686;23.364;2023-06-22T10:58:13;9.63;;;8.73;;
20611;SDS011;10465;42.686;23.364;2023-06-22T11:00:39;10.25;;;9.35;;
20611;SDS011;10465;42.686;23.364;2023-06-22T11:03:04;11.80;;;9.23;;
20611;SDS011;10465;42.686;23.364;2023-06-22T11:05:30;10.85;;;9.75;;
20611;SDS011;10465;42.686;23.364;2023-06-22T11:07:55;10.85;;;9.38;;
20611;SDS011;10465;42.686;23.364;2023-06-22T11:10:21;10.35;;;9.32;;
20611;SDS011;10465;42.686;23.364;2023-06-22T11:12:46;10.88;;;9.77;;
20611;SDS011;10465;42.686;23.364;2023-06-22T11:15:12;11.70;;;9.27;;
20611;SDS011;10465;42.686;23.364;2023-06-22T11:17:37;11.70;;;9.77;;
20611;SDS011;10465;42.686;23.364;2023-06-22T11:20:03;11.10;;;9.05;;
20611;SDS011;10465;42.686;23.364;2023-06-22T11:22:35;10.32;;;8.27;;
20611;SDS011;10465;42.686;23.364;2023-06-22T11:25:01;10.60;;;9.15;;
20611;SDS011;10465;42.686;23.364;2023-06-22T11:27:26;9.77;;;8.80;;
20611;SDS011;10465;42.686;23.364;2023-06-22T11:29:53;10.13;;;9.05;;
20611;SDS011;10465;42.686;23.364;2023-06-22T11:32:18;9.65;;;8.73;;
20611;SDS011;10465;42.686;23.364;2023-06-22T11:34:44;9.55;;;8.65;;
20611;SDS011;10465;42.686;23.364;2023-06-22T11:37:09;23.65;;;19.55;;
20611;SDS011;10465;42.686;23.364;2023-06-22T11:39:35;12.25;;;9.40;;
20611;SDS011;10465;42.686;23.364;2023-06-22T11:42:00;10.02;;;8.95;;
20611;SDS011;10465;42.686;23.364;2023-06-22T11:44:26;9.80;;;8.45;;
20611;SDS011;10465;42.686;23.364;2023-06-22T11:46:51;11.32;;;9.23;;
20611;SDS011;10465;42.686;23.364;2023-06-22T11:49:17;9.63;;;8.40;;
20611;SDS011;10465;42.686;23.364;2023-06-22T11:51:42;9.80;;;8.90;;
20611;SDS011;10465;42.686;23.364;2023-06-22T11:54:08;9.82;;;8.95;;
20611;SDS011;10465;42.686;23.364;2023-06-22T11:56:33;10.85;;;9.80;;
20611;SDS011;10465;42.686;23.364;2023-06-22T11:58:59;9.90;;;8.88;;
20611;SDS011;10465;42.686;23.364;2023-06-22T12:01:24;9.63;;;8.68;;
20611;SDS011;10465;42.686;23.364;2023-06-22T12:03:50;9.70;;;8.77;;
20611;SDS011;10465;42.686;23.364;2023-06-22T12:06:16;9.43;;;8.52;;
20611;SDS011;10465;42.686;23.364;2023-06-22T12:08:41;13.38;;;8.75;;
20611;SDS011;10465;42.686;23.364;2023-06-22T12:11:07;12.05;;;9.73;;
20611;SDS011;10465;42.686;23.364;2023-06-22T12:13:32;11.70;;;9.50;;
20611;SDS011;10465;42.686;23.364;2023-06-22T12:15:57;11.80;;;9.77;;
20611;SDS011;10465;42.686;23.364;2023-06-22T12:18:23;15.52;;;12.48;;
20611;SDS011;10465;42.686;23.364;2023-06-22T12:20:49;10.63;;;9.63;;
20611;SDS011;10465;42.686;23.364;2023-06-22T12:23:14;10.25;;;8.70;;
20611;SDS011;10465;42.686;23.364;2023-06-22T12:25:40;9.68;;;8.68;;
20611;SDS011;10465;42.686;23.364;2023-06-22T12:28:06;10.15;;;9.02;;
20611;SDS011;10465;42.686;23.364;2023-06-22T12:30:34;11.52;;;8.75;;
20611;SDS011;10465;42.686;23.364;2023-06-22T12:32:59;12.00;;;8.75;;
20611;SDS011;10465;42.686;23.364;2023-06-22T12:35:25;10.05;;;9.02;;
20611;SDS011;10465;42.686;23.364;2023-06-22T12:37:50;10.55;;;9.27;;
20611;SDS011;10465;42.686;23.364;2023-06-22T12:40:16;10.73;;;9.63;;
20611;SDS011;10465;42.686;23.364;2023-06-22T12:42:41;11.18;;;9.75;;
20611;SDS011;10465;42.686;23.364;2023-06-22T12:45:07;11.40;;;10.02;;
20611;SDS011;10465;42.686;23.364;2023-06-22T12:47:33;11.45;;;10.35;;
20611;SDS011;10465;42.686;23.364;2023-06-22T12:49:59;11.02;;;9.77;;
20611;SDS011;10465;42.686;23.364;2023-06-22T12:52:24;12.15;;;10.82;;
20611;SDS011;10465;42.686;23.364;2023-06-22T12:54:50;10.88;;;9.75;;
20611;SDS011;10465;42.686;23.364;2023-06-22T12:57:15;10.48;;;9.25;;
20611;SDS011;10465;42.686;23.364;2023-06-22T12:59:42;13.00;;;9.63;;
20611;SDS011;10465;42.686;23.364;2023-06-22T13:02:08;13.23;;;9.50;;
20611;SDS011;10465;42.686;23.364;2023-06-22T13:04:33;15.13;;;9.70;;
20611;SDS011;10465;42.686;23.364;2023-06-22T13:06:59;14.73;;;10.35;;
20611;SDS011;10465;42.686;23.364;2023-06-22T13:09:25;15.13;;;10.82;;
20611;SDS011;10465;42.686;23.364;2023-06-22T13:11:50;13.70;;;10.77;;
20611;SDS011;10465;42.686;23.364;2023-06-22T13:14:17;11.25;;;9.38;;
20611;SDS011;10465;42.686;23.364;2023-06-22T13:16:42;12.80;;;10.45;;
20611;SDS011;10465;42.686;23.364;2023-06-22T13:19:08;12.38;;;10.05;;
20611;SDS011;10465;42.686;23.364;2023-06-22T13:21:33;13.32;;;9.27;;
20611;SDS011;10465;42.686;23.364;2023-06-22T13:23:59;13.85;;;10.07;;
20611;SDS011;10465;42.686;23.364;2023-06-22T13:26:26;15.20;;;10.13;;
20611;SDS011;10465;42.686;23.364;2023-06-22T13:28:53;11.35;;;10.15;;
20611;SDS011;10465;42.686;23.364;2023-06-22T13:31:19;16.83;;;11.63;;
20611;SDS011;10465;42.686;23.364;2023-06-22T13:33:44;12.32;;;10.90;;
20611;SDS011;10465;42.686;23.364;2023-06-22T13:36:12;13.95;;;11.13;;
20611;SDS011;10465;42.686;23.364;2023-06-22T13:38:38;12.05;;;10.70;;
20611;SDS011;10465;42.686;23.364;2023-06-22T13:41:04;16.42;;;11.48;;
20611;SDS011;10465;42.686;23.364;2023-06-22T13:43:30;14.48;;;11.07;;
20611;SDS011;10465;42.686;23.364;2023-06-22T13:45:55;14.82;;;10.70;;
20611;SDS011;10465;42.686;23.364;2023-06-22T13:48:21;15.57;;;11.40;;
20611;SDS011;10465;42.686;23.364;2023-06-22T13:50:48;11.73;;;10.55;;
20611;SDS011;10465;42.686;23.364;2023-06-22T13:53:13;13.65;;;10.88;;
20611;SDS011;10465;42.686;23.364;2023-06-22T13:55:39;15.20;;;12.15;;
20611;SDS011;10465;42.686;23.364;2023-06-22T13:58:04;18.13;;;12.32;;
20611;SDS011;10465;42.686;23.364;2023-06-22T14:00:30;14.68;;;11.43;;
20611;SDS011;10465;42.686;23.364;2023-06-22T14:02:55;14.45;;;10.98;;
20611;SDS011;10465;42.686;23.364;2023-06-22T14:05:21;12.57;;;10.43;;
20611;SDS011;10465;42.686;23.364;2023-06-22T14:07:46;13.13;;;10.32;;
20611;SDS011;10465;42.686;23.364;2023-06-22T14:10:12;13.57;;;10.93;;